createdAt,value
2019-05-05T19:14:35.188Z,97914.30
2019-05-05T19:14:59.717Z,97914.52
2019-05-05T19:15:24.574Z,97910.47
2019-05-05T19:15:49.205Z,97907.55
2019-05-05T19:16:14.214Z,97905.25
2019-05-05T19:16:38.784Z,97899.24
2019-05-05T19:17:04.544Z,97914.48
2019-05-05T19:17:29.500Z,97904.41
2019-05-05T19:17:53.969Z,97915.55
2019-05-05T19:18:18.546Z,97894.20
2019-05-05T19:18:44.740Z,97922.22
2019-05-05T19:19:09.558Z,97914.30
2019-05-05T19:19:36.798Z,97921.15
2019-05-05T19:20:04.285Z,97893.33
2019-05-05T19:20:36.691Z,97922.86
2019-05-05T19:21:05.477Z,97921.59
2019-05-05T19:21:31.622Z,97923.95
2019-05-05T19:22:13.738Z,97920.98
2019-05-05T19:22:38.068Z,97915.50
2019-05-05T19:23:05.851Z,97923.15
2019-05-05T19:23:31.316Z,97922.22
2019-05-05T19:23:58.208Z,97923.55
2019-05-05T19:24:24.178Z,97927.39
2019-05-05T19:24:48.660Z,97927.50
2019-05-05T19:25:16.191Z,97925.78
2019-05-05T19:25:40.754Z,97929.27
2019-05-05T19:26:07.640Z,97931.12
2019-05-05T19:26:33.652Z,97925.52
2019-05-05T19:26:57.956Z,97930.70
2019-05-05T19:27:24.077Z,97927.59
2019-05-05T19:27:48.863Z,97927.77
2019-05-05T19:28:14.273Z,97929.34
2019-05-05T19:28:44.430Z,97924.97
2019-05-05T19:29:08.571Z,97929.24
2019-05-05T19:29:33.319Z,97929.13
2019-05-05T19:29:57.789Z,97930.09
2019-05-05T19:30:22.356Z,97922.63
2019-05-05T19:30:46.855Z,97925.56
2019-05-05T19:31:13.981Z,97927.36
2019-05-05T19:31:38.731Z,97927.77
2019-05-05T19:32:04.754Z,97925.42
2019-05-05T19:32:29.950Z,97926.06
2019-05-05T19:32:55.359Z,97926.42
2019-05-05T19:33:21.249Z,97925.94
2019-05-05T19:33:48.021Z,97925.98
2019-05-05T19:34:14.680Z,97923.55
2019-05-05T19:34:39.768Z,97925.54
2019-05-05T19:35:05.962Z,97924.23
2019-05-05T19:36:44.929Z,97920.49
2019-05-05T19:37:08.982Z,97924.29
2019-05-05T19:37:33.542Z,97926.23
2019-05-05T19:37:57.589Z,97918.71
2019-05-05T19:38:23.582Z,97929.58
2019-05-05T19:38:47.230Z,97926.52
2019-05-05T19:39:11.199Z,97923.53
2019-05-05T19:39:37.160Z,97931.64
2019-05-05T19:40:01.679Z,97925.86
2019-05-05T19:40:29.058Z,97922.59
2019-05-05T19:40:56.030Z,97924.86
2019-05-05T19:41:19.726Z,97923.22
2019-05-05T19:41:44.333Z,97926.68
2019-05-05T19:42:10.347Z,97926.40
2019-05-05T19:42:34.619Z,97923.09
2019-05-05T19:42:58.581Z,97926.47
2019-05-05T19:43:24.451Z,97927.34
2019-05-05T19:43:55.026Z,97925.15
2019-05-05T19:44:19.418Z,97929.33
2019-05-05T19:44:43.852Z,97931.08
2019-05-05T19:45:07.801Z,97931.91
2019-05-05T19:45:33.980Z,97935.61
2019-05-05T19:45:58.415Z,97930.94
2019-05-05T19:46:24.667Z,97939.09
2019-05-05T19:46:54.780Z,97935.50
2019-05-05T19:47:20.288Z,97936.09
2019-05-05T19:47:44.298Z,97936.13
2019-05-05T19:48:08.247Z,97929.41
2019-05-05T19:48:34.008Z,97933.59
2019-05-05T19:49:17.560Z,97933.66
2019-05-05T19:49:44.574Z,97933.66
2019-05-05T19:50:26.246Z,97930.87
2019-05-05T19:50:57.468Z,97933.94
2019-05-05T19:51:21.451Z,97931.70
2019-05-05T19:51:47.735Z,97932.54
2019-05-05T19:52:13.561Z,97936.48
2019-05-05T19:52:37.400Z,97934.84
2019-05-05T19:53:01.518Z,97930.90
2019-05-05T19:53:27.484Z,97932.02
2019-05-05T19:53:51.497Z,97936.48
2019-05-05T19:54:17.447Z,97935.05
2019-05-05T19:54:45.131Z,97934.25
2019-05-05T19:55:10.534Z,97934.00
2019-05-05T19:55:36.322Z,97934.03
2019-05-05T19:56:00.463Z,97931.28
2019-05-05T19:56:24.436Z,97934.87
2019-05-05T19:56:48.605Z,97934.84
2019-05-05T19:57:14.399Z,97932.89
2019-05-05T19:57:38.526Z,97931.49
2019-05-05T19:58:03.544Z,97934.28
2019-05-05T19:58:27.693Z,97934.00
2019-05-05T19:58:59.214Z,97933.44
2019-05-05T19:59:21.089Z,97935.67
2019-05-05T19:59:45.073Z,97935.64
2019-05-05T20:00:09.111Z,97933.09
2019-05-05T20:00:34.820Z,97933.94
2019-05-05T20:01:04.667Z,97937.88
2019-05-05T20:01:35.354Z,97931.52
2019-05-05T20:03:19.438Z,97930.49
2019-05-05T20:03:44.205Z,97927.61
2019-05-05T20:04:08.420Z,97934.30
2019-05-05T20:04:33.744Z,97933.40
2019-05-05T20:04:57.758Z,97928.66
2019-05-05T20:06:43.980Z,97935.48
2019-05-05T20:07:07.752Z,97933.19
2019-05-05T20:07:31.814Z,97937.93
2019-05-05T20:07:55.884Z,97936.50
2019-05-05T20:08:19.913Z,97933.96
2019-05-05T20:08:44.338Z,97937.34
2019-05-05T20:09:08.638Z,97933.75
2019-05-05T20:09:34.068Z,97937.90
2019-05-05T20:09:58.534Z,97939.23
2019-05-05T20:10:23.234Z,97934.73
2019-05-05T20:10:47.416Z,97940.83
2019-05-05T20:11:11.436Z,97935.04
2019-05-05T20:11:37.654Z,97935.11
2019-05-05T20:12:03.852Z,97934.89
2019-05-05T20:12:27.584Z,97934.92
2019-05-05T20:14:09.616Z,97932.05
2019-05-05T20:14:31.031Z,97937.53
2019-05-05T20:14:57.972Z,97936.42
2019-05-05T20:15:26.607Z,97937.50
2019-05-05T20:15:53.754Z,97940.54
